9°C Temp
3°C Dewpoint
% Humidity
Temperature
23 KM/H
14 MPH
12 KTS
200°
South South
West

Wind Speed
Partly Cloudy
Conditions
Pressure 995.92 (hPa) - 29.41 (in)
Visibility 6.2 (mi) - 10.0 (km)

Current Conditions
EGOV
Location 9(mi)
Metar :EGOV 131050Z 20012KT 9999 FEW028 SCT049 BKN090 09/03 Q0996 TEMPO 7000 SHRA SCT020CB RMK BLU TEMPO WHT
Wed 13th November 11:50 am

Airport
  Metar Aviation API Data Provided by https://www.checkwx.com/ PHP scripts by weather34.com ©2019